createdAt,value
2017-09-20T00:00:03.277Z,1019.91
2017-09-20T00:05:03.620Z,1019.9
2017-09-20T00:10:03.160Z,1019.91
2017-09-20T00:15:03.603Z,1019.95
2017-09-20T00:20:03.208Z,1019.88
2017-09-20T00:25:02.808Z,1019.84
2017-09-20T00:30:03.256Z,1019.8
2017-09-20T00:35:02.832Z,1019.8
2017-09-20T00:40:03.423Z,1019.8
2017-09-20T00:45:02.840Z,1019.79
2017-09-20T00:50:03.399Z,1019.83
2017-09-20T00:55:02.746Z,1019.77
2017-09-20T01:00:03.167Z,1019.78
2017-09-20T01:05:03.715Z,1019.8
2017-09-20T01:10:03.368Z,1019.86
2017-09-20T01:15:02.974Z,1019.84
2017-09-20T01:20:03.420Z,1019.74
2017-09-20T01:30:03.626Z,1019.67
2017-09-20T01:35:02.997Z,1019.76
2017-09-20T01:40:02.632Z,1019.68
2017-09-20T01:45:03.144Z,1019.73
2017-09-20T01:50:03.634Z,1019.67
2017-09-20T01:55:03.167Z,1019.68
2017-09-20T02:00:03.589Z,1019.56
2017-09-20T02:05:02.947Z,1019.49
2017-09-20T02:10:03.583Z,1019.58
2017-09-20T02:15:03.201Z,1019.68
2017-09-20T02:20:03.551Z,1019.66
2017-09-20T02:25:03.129Z,1019.74
2017-09-20T02:30:03.530Z,1019.72
2017-09-20T02:35:02.962Z,1019.71
2017-09-20T02:40:03.441Z,1019.61
2017-09-20T02:45:03.084Z,1019.68
2017-09-20T02:50:02.711Z,1019.68
2017-09-20T02:55:03.311Z,1019.66
2017-09-20T03:00:02.724Z,1019.69
2017-09-20T03:05:03.336Z,1019.61
2017-09-20T03:10:02.794Z,1019.59
2017-09-20T03:15:03.386Z,1019.58
2017-09-20T03:20:02.972Z,1019.59
2017-09-20T03:25:03.619Z,1019.55
2017-09-20T03:30:03.123Z,1019.67
2017-09-20T03:35:02.719Z,1019.63
2017-09-20T03:40:03.352Z,1019.66
2017-09-20T03:45:02.785Z,1019.67
2017-09-20T03:50:03.223Z,1019.66
2017-09-20T03:55:03.615Z,1019.71
2017-09-20T04:00:02.990Z,1019.69
2017-09-20T04:05:03.412Z,1019.74
2017-09-20T04:10:02.845Z,1019.74
2017-09-20T04:15:03.420Z,1019.76
2017-09-20T04:20:02.952Z,1019.69
2017-09-20T04:25:03.459Z,1019.69
2017-09-20T04:30:02.849Z,1019.72
2017-09-20T04:35:03.233Z,1019.68
2017-09-20T04:40:02.651Z,1019.7
2017-09-20T04:45:03.031Z,1019.59
2017-09-20T04:50:03.515Z,1019.68
2017-09-20T04:55:02.956Z,1019.71
2017-09-20T05:00:03.501Z,1019.67
2017-09-20T05:05:03.050Z,1019.71
2017-09-20T05:10:02.683Z,1019.66
2017-09-20T05:15:03.123Z,1019.69
2017-09-20T05:20:02.719Z,1019.68
2017-09-20T05:25:03.255Z,1019.66
2017-09-20T05:30:03.623Z,1019.78
2017-09-20T05:35:03.178Z,1019.68
2017-09-20T05:40:03.620Z,1019.7
2017-09-20T05:45:03.122Z,1019.77
2017-09-20T05:50:03.599Z,1019.67
2017-09-20T05:55:03.148Z,1019.62
2017-09-20T06:00:03.586Z,1019.64
2017-09-20T06:05:03.137Z,1019.68
2017-09-20T06:10:02.798Z,1019.64
2017-09-20T06:15:03.206Z,1019.7
2017-09-20T06:20:02.865Z,1019.63
2017-09-20T06:25:03.329Z,1019.78
2017-09-20T06:30:02.785Z,1019.84
2017-09-20T06:35:03.386Z,1019.87
2017-09-20T06:40:02.992Z,1019.85
2017-09-20T06:45:03.514Z,1019.87
2017-09-20T06:50:03.041Z,1019.91
2017-09-20T06:55:03.456Z,1020.01
2017-09-20T07:00:02.985Z,1019.92
2017-09-20T07:05:03.553Z,1019.96
2017-09-20T07:10:02.973Z,1020
2017-09-20T07:15:03.356Z,1020.04
2017-09-20T07:20:02.962Z,1020.05
2017-09-20T07:25:03.566Z,1019.96
2017-09-20T07:30:03.192Z,1019.88
2017-09-20T07:35:02.787Z,1020
2017-09-20T07:40:03.283Z,1020
2017-09-20T07:45:02.742Z,1020.06
2017-09-20T07:50:03.343Z,1020.14
2017-09-20T07:55:02.873Z,1020.15
2017-09-20T08:00:03.304Z,1020.15
2017-09-20T08:05:02.847Z,1020.15
2017-09-20T08:10:03.333Z,1020.26
2017-09-20T08:15:02.762Z,1020.3
2017-09-20T08:20:03.186Z,1020.23
2017-09-20T08:25:03.568Z,1020.32
2017-09-20T08:30:03.163Z,1020.25
2017-09-20T08:35:03.636Z,1020.22
2017-09-20T08:40:03.131Z,1020.24
2017-09-20T08:45:02.688Z,1020.07
2017-09-20T08:50:03.165Z,1020.14
2017-09-20T08:55:02.708Z,1020.18
2017-09-20T09:00:03.282Z,1020.2
2017-09-20T09:05:02.862Z,1020.21
2017-09-20T09:10:03.343Z,1020.24
2017-09-20T09:15:02.752Z,1020.29
2017-09-20T09:20:03.345Z,1020.22
2017-09-20T09:25:02.722Z,1020.19
2017-09-20T09:30:03.341Z,1020.26
2017-09-20T09:35:02.723Z,1020.24
2017-09-20T09:40:03.209Z,1020.2
2017-09-20T09:45:03.639Z,1020.24
2017-09-20T09:50:02.994Z,1020.34
2017-09-20T09:55:03.572Z,1020.32
2017-09-20T10:00:03.001Z,1020.34
2017-09-20T10:05:03.394Z,1020.34
2017-09-20T10:10:02.958Z,1020.39
2017-09-20T10:15:03.357Z,1020.36
2017-09-20T10:20:02.706Z,1020.32
2017-09-20T10:25:03.309Z,1020.28
2017-09-20T10:30:02.699Z,1020.27
2017-09-20T10:35:03.115Z,1020.24
2017-09-20T10:40:02.812Z,1020.18
2017-09-20T10:45:03.395Z,1020.18
2017-09-20T10:50:03.150Z,1020.15
2017-09-20T10:55:02.709Z,1020.18
2017-09-20T11:00:03.264Z,1020.24
2017-09-20T11:05:02.819Z,1020.24
2017-09-20T11:10:03.514Z,1020.25
2017-09-20T11:15:03.025Z,1020.24
2017-09-20T11:20:03.443Z,1020.24
2017-09-20T11:25:03.018Z,1020.18
2017-09-20T11:35:03.209Z,1020.16
2017-09-20T11:40:02.857Z,1020.16
2017-09-20T11:45:03.403Z,1020.18
2017-09-20T11:50:02.935Z,1020.16
2017-09-20T11:55:03.466Z,1020.16
2017-09-20T12:00:03.043Z,1020.08
2017-09-20T12:05:03.472Z,1020.06
2017-09-20T12:10:03.019Z,1020.01
2017-09-20T12:15:03.465Z,1019.94
2017-09-20T12:20:02.953Z,1019.94
2017-09-20T12:25:03.551Z,1019.82
2017-09-20T12:30:02.952Z,1019.82
2017-09-20T12:35:03.516Z,1019.82
2017-09-20T12:40:02.929Z,1019.83
2017-09-20T12:45:03.491Z,1019.81
2017-09-20T12:55:02.773Z,1019.77
2017-09-20T13:00:03.321Z,1019.76
2017-09-20T13:05:02.895Z,1019.79
2017-09-20T13:10:03.564Z,1019.74
2017-09-20T13:15:03.173Z,1019.76
2017-09-20T13:20:03.615Z,1019.77
2017-09-20T13:25:03.291Z,1019.75
2017-09-20T13:30:02.659Z,1019.7
2017-09-20T13:35:03.193Z,1019.71
2017-09-20T13:40:02.662Z,1019.65
2017-09-20T13:50:02.955Z,1019.7
2017-09-20T13:55:03.356Z,1019.71
2017-09-20T14:00:02.979Z,1019.63
2017-09-20T14:05:03.380Z,1019.65
2017-09-20T14:10:03.004Z,1019.56
2017-09-20T14:15:03.448Z,1019.54
2017-09-20T14:20:03.118Z,1019.51
2017-09-20T14:25:02.802Z,1019.5
2017-09-20T14:30:03.431Z,1019.5
2017-09-20T14:35:03.087Z,1019.45
2017-09-20T14:40:02.826Z,1019.46
2017-09-20T14:45:03.283Z,1019.53
2017-09-20T14:50:02.706Z,1019.51
2017-09-20T14:55:03.256Z,1019.4
2017-09-20T15:00:02.683Z,1019.45
2017-09-20T15:05:03.287Z,1019.4
2017-09-20T15:10:02.943Z,1019.36
2017-09-20T15:15:03.544Z,1019.33
2017-09-20T15:20:03.168Z,1019.39
2017-09-20T15:25:02.710Z,1019.45
2017-09-20T15:30:03.377Z,1019.38
2017-09-20T15:35:03.018Z,1019.35
2017-09-20T15:40:03.552Z,1019.33
2017-09-20T15:45:03.170Z,1019.35
2017-09-20T15:50:03.595Z,1019.29
2017-09-20T15:55:03.038Z,1019.3
2017-09-20T16:00:03.490Z,1019.27
2017-09-20T16:05:02.893Z,1019.21
2017-09-20T16:10:03.547Z,1019.24
2017-09-20T16:15:02.933Z,1019.27
2017-09-20T16:20:03.509Z,1019.32
2017-09-20T16:25:03.098Z,1019.36
2017-09-20T16:30:02.660Z,1019.35
2017-09-20T16:35:03.357Z,1019.36
2017-09-20T16:40:02.977Z,1019.42
2017-09-20T16:45:03.496Z,1019.48
2017-09-20T16:50:03.112Z,1019.48
2017-09-20T16:55:03.518Z,1019.48
2017-09-20T17:00:02.981Z,1019.53
2017-09-20T17:05:03.383Z,1019.59
2017-09-20T17:10:03.116Z,1019.62
2017-09-20T17:15:03.568Z,1019.59
2017-09-20T17:20:02.985Z,1019.57
2017-09-20T17:25:03.400Z,1019.58
2017-09-20T17:30:03.019Z,1019.58
2017-09-20T17:35:03.528Z,1019.62
2017-09-20T17:40:02.967Z,1019.62
2017-09-20T17:45:03.530Z,1019.57
2017-09-20T17:50:02.970Z,1019.61
2017-09-20T17:55:03.575Z,1019.63
2017-09-20T18:00:03.189Z,1019.7
2017-09-20T18:05:02.852Z,1019.67
2017-09-20T18:10:03.508Z,1019.69
2017-09-20T18:15:02.928Z,1019.83
2017-09-20T18:20:03.563Z,1019.76
2017-09-20T18:25:03.015Z,1019.83
2017-09-20T18:30:03.592Z,1019.92
2017-09-20T18:35:03.178Z,1019.93
2017-09-20T18:40:02.753Z,1019.97
2017-09-20T18:45:03.246Z,1020
2017-09-20T18:50:02.824Z,1020.02
2017-09-20T18:55:03.410Z,1020.06
2017-09-20T19:00:03.004Z,1019.98
2017-09-20T19:05:03.467Z,1019.93
2017-09-20T19:10:02.933Z,1019.96
2017-09-20T19:15:03.331Z,1019.97
2017-09-20T19:20:02.774Z,1020
2017-09-20T19:25:03.206Z,1020
2017-09-20T19:30:02.852Z,1020
2017-09-20T19:35:03.474Z,1019.93
2017-09-20T19:40:02.908Z,1019.92
2017-09-20T19:45:03.327Z,1019.87
2017-09-20T19:50:02.817Z,1019.86
2017-09-20T19:55:03.213Z,1019.89
2017-09-20T20:00:03.511Z,1019.81
2017-09-20T20:05:03.051Z,1019.9
2017-09-20T20:10:03.497Z,1019.92
2017-09-20T20:15:03.125Z,1019.96
2017-09-20T20:20:02.775Z,1019.98
2017-09-20T20:25:03.220Z,1020.05
2017-09-20T20:30:03.615Z,1020.08
2017-09-20T20:35:03.323Z,1020.07
2017-09-20T20:40:02.761Z,1020.16
2017-09-20T20:45:03.361Z,1020.12
2017-09-20T20:50:03.001Z,1020.2
2017-09-20T20:55:03.637Z,1020.14
2017-09-20T21:00:03.098Z,1020.17
2017-09-20T21:05:03.574Z,1020.19
2017-09-20T21:10:03.002Z,1020.25
2017-09-20T21:15:03.386Z,1020.21
2017-09-20T21:20:02.990Z,1020.2
2017-09-20T21:25:03.598Z,1020.22
2017-09-20T21:30:03.074Z,1020.21
2017-09-20T21:35:02.658Z,1020.23
2017-09-20T21:40:03.299Z,1020.14
2017-09-20T21:45:02.675Z,1020.15
2017-09-20T21:50:03.349Z,1020.07
2017-09-20T21:55:02.896Z,1020.04
2017-09-20T22:00:03.380Z,1020.1
2017-09-20T22:05:02.939Z,1020.08
2017-09-20T22:10:03.534Z,1020.11
2017-09-20T22:15:03.019Z,1020.08
2017-09-20T22:20:03.391Z,1020.06
2017-09-20T22:25:02.801Z,1020.09
2017-09-20T22:30:03.396Z,1020.04
2017-09-20T22:35:02.763Z,1020.06
2017-09-20T22:40:03.185Z,1020.06
2017-09-20T22:45:02.729Z,1020.03
2017-09-20T22:50:03.314Z,1020.05
2017-09-20T22:55:02.922Z,1020.06
2017-09-20T23:00:03.812Z,1020.08
2017-09-20T23:05:03.612Z,1020.05
2017-09-20T23:10:03.038Z,1020.08
2017-09-20T23:15:03.598Z,1020.15
2017-09-20T23:20:03.035Z,1020.14
2017-09-20T23:25:03.502Z,1020.21
2017-09-20T23:30:02.875Z,1020.19
2017-09-20T23:35:03.512Z,1020.12
2017-09-20T23:40:03.143Z,1020.14
2017-09-20T23:45:03.609Z,1020.16
2017-09-20T23:50:03.212Z,1020.19
2017-09-20T23:55:02.850Z,1020.24
